sensor_id;sensor_type;location;lat;lon;timestamp;P1;durP1;ratioP1;P2;durP2;ratioP2
78925;SDS011;68321;51.276;7.208;2023-04-02T00:03:24;3.08;;;2.13;;
78925;SDS011;68321;51.276;7.208;2023-04-02T00:05:52;2.90;;;2.38;;
78925;SDS011;68321;51.276;7.208;2023-04-02T00:08:21;2.75;;;2.10;;
78925;SDS011;68321;51.276;7.208;2023-04-02T00:10:53;3.03;;;1.90;;
78925;SDS011;68321;51.276;7.208;2023-04-02T00:13:23;3.42;;;2.88;;
78925;SDS011;68321;51.276;7.208;2023-04-02T00:15:53;3.80;;;3.25;;
78925;SDS011;68321;51.276;7.208;2023-04-02T00:18:21;3.03;;;2.47;;
78925;SDS011;68321;51.276;7.208;2023-04-02T00:20:48;4.25;;;3.30;;
78925;SDS011;68321;51.276;7.208;2023-04-02T00:23:16;3.83;;;2.50;;
78925;SDS011;68321;51.276;7.208;2023-04-02T00:25:43;4.07;;;3.63;;
78925;SDS011;68321;51.276;7.208;2023-04-02T00:28:17;3.65;;;3.22;;
78925;SDS011;68321;51.276;7.208;2023-04-02T00:31:08;3.50;;;2.78;;
78925;SDS011;68321;51.276;7.208;2023-04-02T00:33:30;3.28;;;2.63;;
78925;SDS011;68321;51.276;7.208;2023-04-02T00:35:55;3.35;;;2.78;;
78925;SDS011;68321;51.276;7.208;2023-04-02T00:38:25;3.90;;;3.22;;
78925;SDS011;68321;51.276;7.208;2023-04-02T00:40:53;3.10;;;2.70;;
78925;SDS011;68321;51.276;7.208;2023-04-02T00:43:26;4.10;;;3.25;;
78925;SDS011;68321;51.276;7.208;2023-04-02T00:45:55;3.67;;;3.28;;
78925;SDS011;68321;51.276;7.208;2023-04-02T00:50:52;3.53;;;2.88;;
78925;SDS011;68321;51.276;7.208;2023-04-02T00:53:25;4.93;;;3.67;;
78925;SDS011;68321;51.276;7.208;2023-04-02T00:55:52;4.72;;;3.70;;
78925;SDS011;68321;51.276;7.208;2023-04-02T00:58:22;4.72;;;3.38;;
78925;SDS011;68321;51.276;7.208;2023-04-02T01:00:50;3.60;;;2.90;;
78925;SDS011;68321;51.276;7.208;2023-04-02T01:05:42;3.87;;;3.43;;
78925;SDS011;68321;51.276;7.208;2023-04-02T01:08:19;4.45;;;3.42;;
78925;SDS011;68321;51.276;7.208;2023-04-02T01:13:39;3.78;;;3.08;;
78925;SDS011;68321;51.276;7.208;2023-04-02T01:21:47;4.30;;;3.03;;
78925;SDS011;68321;51.276;7.208;2023-04-02T01:24:38;3.78;;;2.88;;
78925;SDS011;68321;51.276;7.208;2023-04-02T01:27:04;3.70;;;2.58;;
78925;SDS011;68321;51.276;7.208;2023-04-02T01:29:36;3.80;;;2.75;;
78925;SDS011;68321;51.276;7.208;2023-04-02T01:32:04;3.75;;;2.78;;
78925;SDS011;68321;51.276;7.208;2023-04-02T01:34:32;3.92;;;3.08;;
78925;SDS011;68321;51.276;7.208;2023-04-02T01:42:20;2.38;;;2.15;;
78925;SDS011;68321;51.276;7.208;2023-04-02T01:44:54;4.10;;;3.10;;
78925;SDS011;68321;51.276;7.208;2023-04-02T01:47:25;6.53;;;3.65;;
78925;SDS011;68321;51.276;7.208;2023-04-02T01:49:57;3.33;;;2.85;;
78925;SDS011;68321;51.276;7.208;2023-04-02T01:52:33;3.90;;;2.72;;
78925;SDS011;68321;51.276;7.208;2023-04-02T01:55:00;4.45;;;3.70;;
78925;SDS011;68321;51.276;7.208;2023-04-02T01:57:27;4.15;;;3.58;;
78925;SDS011;68321;51.276;7.208;2023-04-02T01:59:53;4.95;;;4.03;;
78925;SDS011;68321;51.276;7.208;2023-04-02T02:02:18;3.97;;;3.17;;
78925;SDS011;68321;51.276;7.208;2023-04-02T02:04:46;4.68;;;3.60;;
78925;SDS011;68321;51.276;7.208;2023-04-02T02:07:15;3.78;;;3.45;;
78925;SDS011;68321;51.276;7.208;2023-04-02T02:09:42;4.07;;;3.00;;
78925;SDS011;68321;51.276;7.208;2023-04-02T02:12:10;4.47;;;3.10;;
78925;SDS011;68321;51.276;7.208;2023-04-02T02:17:03;3.67;;;2.80;;
78925;SDS011;68321;51.276;7.208;2023-04-02T02:20:02;3.45;;;2.60;;
78925;SDS011;68321;51.276;7.208;2023-04-02T02:22:28;3.35;;;2.80;;
78925;SDS011;68321;51.276;7.208;2023-04-02T02:24:56;2.65;;;2.45;;
78925;SDS011;68321;51.276;7.208;2023-04-02T02:29:48;2.73;;;2.23;;
78925;SDS011;68321;51.276;7.208;2023-04-02T02:32:22;3.70;;;2.65;;
78925;SDS011;68321;51.276;7.208;2023-04-02T02:35:12;3.65;;;3.20;;
78925;SDS011;68321;51.276;7.208;2023-04-02T02:37:43;4.13;;;2.92;;
78925;SDS011;68321;51.276;7.208;2023-04-02T02:40:21;3.75;;;2.65;;
78925;SDS011;68321;51.276;7.208;2023-04-02T02:42:52;5.18;;;4.15;;
78925;SDS011;68321;51.276;7.208;2023-04-02T02:45:21;3.50;;;2.80;;
78925;SDS011;68321;51.276;7.208;2023-04-02T02:47:49;4.10;;;2.83;;
78925;SDS011;68321;51.276;7.208;2023-04-02T02:50:18;3.38;;;2.80;;
78925;SDS011;68321;51.276;7.208;2023-04-02T02:52:46;4.93;;;2.80;;
78925;SDS011;68321;51.276;7.208;2023-04-02T02:55:16;4.95;;;2.90;;
78925;SDS011;68321;51.276;7.208;2023-04-02T02:57:47;5.47;;;3.70;;
78925;SDS011;68321;51.276;7.208;2023-04-02T03:00:14;4.18;;;2.90;;
78925;SDS011;68321;51.276;7.208;2023-04-02T03:02:43;3.58;;;2.47;;
78925;SDS011;68321;51.276;7.208;2023-04-02T03:05:09;4.38;;;3.70;;
78925;SDS011;68321;51.276;7.208;2023-04-02T03:07:41;6.50;;;4.13;;
78925;SDS011;68321;51.276;7.208;2023-04-02T03:10:16;4.47;;;4.03;;
78925;SDS011;68321;51.276;7.208;2023-04-02T03:15:21;5.20;;;4.45;;
78925;SDS011;68321;51.276;7.208;2023-04-02T03:22:56;5.47;;;3.78;;
78925;SDS011;68321;51.276;7.208;2023-04-02T03:28:35;5.35;;;4.85;;
78925;SDS011;68321;51.276;7.208;2023-04-02T03:31:05;5.15;;;4.03;;
78925;SDS011;68321;51.276;7.208;2023-04-02T03:33:33;4.68;;;4.15;;
78925;SDS011;68321;51.276;7.208;2023-04-02T03:36:09;4.93;;;3.90;;
78925;SDS011;68321;51.276;7.208;2023-04-02T03:43:38;4.60;;;3.38;;
78925;SDS011;68321;51.276;7.208;2023-04-02T03:46:14;5.20;;;4.15;;
78925;SDS011;68321;51.276;7.208;2023-04-02T03:48:47;5.70;;;3.45;;
78925;SDS011;68321;51.276;7.208;2023-04-02T03:54:00;4.28;;;3.88;;
78925;SDS011;68321;51.276;7.208;2023-04-02T03:56:33;5.07;;;4.57;;
78925;SDS011;68321;51.276;7.208;2023-04-02T03:59:12;5.40;;;4.15;;
78925;SDS011;68321;51.276;7.208;2023-04-02T04:04:17;4.90;;;3.95;;
78925;SDS011;68321;51.276;7.208;2023-04-02T04:06:44;4.60;;;3.58;;
78925;SDS011;68321;51.276;7.208;2023-04-02T04:09:24;3.92;;;3.55;;
78925;SDS011;68321;51.276;7.208;2023-04-02T04:12:11;6.00;;;5.28;;
78925;SDS011;68321;51.276;7.208;2023-04-02T04:14:50;5.57;;;4.90;;
78925;SDS011;68321;51.276;7.208;2023-04-02T04:17:32;4.47;;;4.07;;
78925;SDS011;68321;51.276;7.208;2023-04-02T04:20:16;6.38;;;5.78;;
78925;SDS011;68321;51.276;7.208;2023-04-02T04:22:50;6.82;;;5.53;;
78925;SDS011;68321;51.276;7.208;2023-04-02T04:25:21;5.65;;;4.43;;
78925;SDS011;68321;51.276;7.208;2023-04-02T04:28:06;6.13;;;4.28;;
78925;SDS011;68321;51.276;7.208;2023-04-02T04:30:48;6.65;;;4.32;;
78925;SDS011;68321;51.276;7.208;2023-04-02T04:33:18;8.30;;;4.72;;
78925;SDS011;68321;51.276;7.208;2023-04-02T04:35:56;6.82;;;4.90;;
78925;SDS011;68321;51.276;7.208;2023-04-02T04:38:57;5.45;;;4.88;;
78925;SDS011;68321;51.276;7.208;2023-04-02T04:41:20;5.55;;;4.53;;
78925;SDS011;68321;51.276;7.208;2023-04-02T04:43:49;8.75;;;6.18;;
78925;SDS011;68321;51.276;7.208;2023-04-02T04:46:43;3.85;;;2.67;;
78925;SDS011;68321;51.276;7.208;2023-04-02T04:49:07;5.43;;;4.03;;
78925;SDS011;68321;51.276;7.208;2023-04-02T04:51:36;6.53;;;4.53;;
78925;SDS011;68321;51.276;7.208;2023-04-02T04:54:08;7.00;;;5.25;;
78925;SDS011;68321;51.276;7.208;2023-04-02T04:56:36;5.40;;;4.50;;
78925;SDS011;68321;51.276;7.208;2023-04-02T04:59:20;5.72;;;3.75;;
78925;SDS011;68321;51.276;7.208;2023-04-02T05:01:54;5.20;;;4.20;;
78925;SDS011;68321;51.276;7.208;2023-04-02T05:04:42;6.72;;;5.32;;
78925;SDS011;68321;51.276;7.208;2023-04-02T05:07:30;6.95;;;4.35;;
78925;SDS011;68321;51.276;7.208;2023-04-02T05:12:58;6.30;;;5.00;;
78925;SDS011;68321;51.276;7.208;2023-04-02T05:15:32;6.78;;;5.13;;
78925;SDS011;68321;51.276;7.208;2023-04-02T05:21:04;6.55;;;5.32;;
78925;SDS011;68321;51.276;7.208;2023-04-02T05:23:47;7.40;;;4.40;;
78925;SDS011;68321;51.276;7.208;2023-04-02T05:26:20;7.35;;;5.93;;
78925;SDS011;68321;51.276;7.208;2023-04-02T05:28:55;7.80;;;5.13;;
78925;SDS011;68321;51.276;7.208;2023-04-02T05:33:56;13.18;;;5.57;;
78925;SDS011;68321;51.276;7.208;2023-04-02T05:36:26;8.68;;;6.43;;
78925;SDS011;68321;51.276;7.208;2023-04-02T05:38:53;9.15;;;6.47;;
78925;SDS011;68321;51.276;7.208;2023-04-02T05:41:27;10.18;;;8.15;;
78925;SDS011;68321;51.276;7.208;2023-04-02T05:44:07;6.15;;;4.82;;
78925;SDS011;68321;51.276;7.208;2023-04-02T05:46:40;10.32;;;7.38;;
78925;SDS011;68321;51.276;7.208;2023-04-02T05:49:12;11.35;;;8.25;;
78925;SDS011;68321;51.276;7.208;2023-04-02T05:51:44;13.93;;;8.75;;
78925;SDS011;68321;51.276;7.208;2023-04-02T05:54:19;12.20;;;7.70;;
78925;SDS011;68321;51.276;7.208;2023-04-02T05:56:49;8.02;;;6.75;;
78925;SDS011;68321;51.276;7.208;2023-04-02T05:59:19;7.70;;;5.78;;
78925;SDS011;68321;51.276;7.208;2023-04-02T06:01:48;10.18;;;6.32;;
78925;SDS011;68321;51.276;7.208;2023-04-02T06:06:52;11.25;;;7.00;;
78925;SDS011;68321;51.276;7.208;2023-04-02T06:12:17;9.73;;;6.07;;
78925;SDS011;68321;51.276;7.208;2023-04-02T06:14:44;13.25;;;7.05;;
78925;SDS011;68321;51.276;7.208;2023-04-02T06:17:14;8.43;;;5.90;;
78925;SDS011;68321;51.276;7.208;2023-04-02T06:19:41;10.70;;;5.60;;
78925;SDS011;68321;51.276;7.208;2023-04-02T06:22:15;18.52;;;7.45;;
78925;SDS011;68321;51.276;7.208;2023-04-02T06:24:45;10.88;;;6.32;;
78925;SDS011;68321;51.276;7.208;2023-04-02T06:27:15;9.80;;;6.70;;
78925;SDS011;68321;51.276;7.208;2023-04-02T06:29:44;10.70;;;6.20;;
78925;SDS011;68321;51.276;7.208;2023-04-02T06:32:11;7.95;;;5.80;;
78925;SDS011;68321;51.276;7.208;2023-04-02T06:34:37;10.02;;;6.05;;
78925;SDS011;68321;51.276;7.208;2023-04-02T06:37:10;9.52;;;5.88;;
78925;SDS011;68321;51.276;7.208;2023-04-02T06:39:39;11.02;;;7.68;;
78925;SDS011;68321;51.276;7.208;2023-04-02T06:42:05;10.70;;;7.30;;
78925;SDS011;68321;51.276;7.208;2023-04-02T06:44:35;11.27;;;6.85;;
78925;SDS011;68321;51.276;7.208;2023-04-02T06:47:03;11.07;;;5.70;;
78925;SDS011;68321;51.276;7.208;2023-04-02T06:49:37;7.93;;;5.03;;
78925;SDS011;68321;51.276;7.208;2023-04-02T06:52:12;10.93;;;6.93;;
78925;SDS011;68321;51.276;7.208;2023-04-02T06:54:41;10.95;;;7.20;;
78925;SDS011;68321;51.276;7.208;2023-04-02T06:57:07;14.43;;;8.02;;
78925;SDS011;68321;51.276;7.208;2023-04-02T06:59:33;14.23;;;8.20;;
78925;SDS011;68321;51.276;7.208;2023-04-02T07:02:03;17.13;;;7.57;;
78925;SDS011;68321;51.276;7.208;2023-04-02T07:04:30;10.25;;;6.82;;
78925;SDS011;68321;51.276;7.208;2023-04-02T07:06:56;11.93;;;7.35;;
78925;SDS011;68321;51.276;7.208;2023-04-02T07:09:21;14.52;;;9.05;;
78925;SDS011;68321;51.276;7.208;2023-04-02T07:11:47;13.27;;;6.93;;
78925;SDS011;68321;51.276;7.208;2023-04-02T07:14:13;12.30;;;6.10;;
78925;SDS011;68321;51.276;7.208;2023-04-02T07:16:38;13.90;;;7.10;;
78925;SDS011;68321;51.276;7.208;2023-04-02T07:19:05;12.15;;;6.50;;
78925;SDS011;68321;51.276;7.208;2023-04-02T07:21:31;11.85;;;6.70;;
78925;SDS011;68321;51.276;7.208;2023-04-02T07:23:56;8.93;;;6.63;;
78925;SDS011;68321;51.276;7.208;2023-04-02T07:26:24;11.10;;;5.20;;
78925;SDS011;68321;51.276;7.208;2023-04-02T07:28:51;12.98;;;5.93;;
78925;SDS011;68321;51.276;7.208;2023-04-02T07:31:21;10.88;;;7.18;;
78925;SDS011;68321;51.276;7.208;2023-04-02T07:33:51;9.65;;;6.53;;
78925;SDS011;68321;51.276;7.208;2023-04-02T07:36:19;8.88;;;6.10;;
78925;SDS011;68321;51.276;7.208;2023-04-02T07:38:47;12.43;;;6.45;;
78925;SDS011;68321;51.276;7.208;2023-04-02T07:41:12;10.07;;;6.35;;
78925;SDS011;68321;51.276;7.208;2023-04-02T07:43:38;7.60;;;5.43;;
78925;SDS011;68321;51.276;7.208;2023-04-02T07:46:04;12.02;;;6.00;;
78925;SDS011;68321;51.276;7.208;2023-04-02T07:48:30;8.07;;;5.28;;
78925;SDS011;68321;51.276;7.208;2023-04-02T07:50:55;6.45;;;3.83;;
78925;SDS011;68321;51.276;7.208;2023-04-02T07:55:58;8.90;;;6.53;;
78925;SDS011;68321;51.276;7.208;2023-04-02T07:58:25;15.48;;;7.30;;
78925;SDS011;68321;51.276;7.208;2023-04-02T08:00:51;7.50;;;5.55;;
78925;SDS011;68321;51.276;7.208;2023-04-02T08:03:16;10.40;;;6.07;;
78925;SDS011;68321;51.276;7.208;2023-04-02T08:05:42;9.05;;;5.05;;
78925;SDS011;68321;51.276;7.208;2023-04-02T08:08:07;8.68;;;5.63;;
78925;SDS011;68321;51.276;7.208;2023-04-02T08:10:32;11.68;;;5.07;;
78925;SDS011;68321;51.276;7.208;2023-04-02T08:12:58;7.57;;;4.73;;
78925;SDS011;68321;51.276;7.208;2023-04-02T08:15:23;7.53;;;4.03;;
78925;SDS011;68321;51.276;7.208;2023-04-02T08:17:48;13.02;;;6.15;;
78925;SDS011;68321;51.276;7.208;2023-04-02T08:20:18;6.60;;;4.43;;
78925;SDS011;68321;51.276;7.208;2023-04-02T08:22:45;12.60;;;5.45;;
78925;SDS011;68321;51.276;7.208;2023-04-02T08:25:11;7.78;;;4.68;;
78925;SDS011;68321;51.276;7.208;2023-04-02T08:27:36;11.23;;;7.00;;
78925;SDS011;68321;51.276;7.208;2023-04-02T08:30:02;9.40;;;6.43;;
78925;SDS011;68321;51.276;7.208;2023-04-02T08:32:27;10.73;;;4.82;;
78925;SDS011;68321;51.276;7.208;2023-04-02T08:34:53;9.43;;;5.90;;
78925;SDS011;68321;51.276;7.208;2023-04-02T08:37:18;8.70;;;5.47;;
78925;SDS011;68321;51.276;7.208;2023-04-02T08:39:43;10.40;;;5.27;;
78925;SDS011;68321;51.276;7.208;2023-04-02T08:47:56;9.63;;;5.72;;
78925;SDS011;68321;51.276;7.208;2023-04-02T08:50:31;10.38;;;5.72;;
78925;SDS011;68321;51.276;7.208;2023-04-02T08:52:58;11.35;;;4.93;;
78925;SDS011;68321;51.276;7.208;2023-04-02T08:58:38;8.55;;;5.25;;
78925;SDS011;68321;51.276;7.208;2023-04-02T09:01:05;7.18;;;5.53;;
78925;SDS011;68321;51.276;7.208;2023-04-02T09:03:37;5.75;;;4.80;;
78925;SDS011;68321;51.276;7.208;2023-04-02T09:06:07;5.70;;;4.13;;
78925;SDS011;68321;51.276;7.208;2023-04-02T09:08:34;11.75;;;4.75;;
78925;SDS011;68321;51.276;7.208;2023-04-02T09:13:56;6.93;;;4.40;;
78925;SDS011;68321;51.276;7.208;2023-04-02T09:16:29;4.53;;;3.28;;
78925;SDS011;68321;51.276;7.208;2023-04-02T09:18:59;6.78;;;4.10;;
78925;SDS011;68321;51.276;7.208;2023-04-02T09:24:01;5.05;;;3.75;;
78925;SDS011;68321;51.276;7.208;2023-04-02T09:26:27;7.43;;;4.80;;
78925;SDS011;68321;51.276;7.208;2023-04-02T09:28:59;6.20;;;4.45;;
78925;SDS011;68321;51.276;7.208;2023-04-02T09:31:38;7.97;;;5.38;;
78925;SDS011;68321;51.276;7.208;2023-04-02T09:36:54;6.90;;;4.28;;
78925;SDS011;68321;51.276;7.208;2023-04-02T09:39:24;7.97;;;4.32;;
78925;SDS011;68321;51.276;7.208;2023-04-02T09:41:51;6.95;;;5.57;;
78925;SDS011;68321;51.276;7.208;2023-04-02T09:44:22;7.05;;;4.75;;
78925;SDS011;68321;51.276;7.208;2023-04-02T09:49:27;5.75;;;3.00;;
78925;SDS011;68321;51.276;7.208;2023-04-02T09:54:36;5.28;;;4.20;;
78925;SDS011;68321;51.276;7.208;2023-04-02T09:57:20;6.63;;;4.70;;
78925;SDS011;68321;51.276;7.208;2023-04-02T10:00:15;6.97;;;3.50;;
78925;SDS011;68321;51.276;7.208;2023-04-02T10:02:43;5.40;;;4.90;;
78925;SDS011;68321;51.276;7.208;2023-04-02T10:05:20;3.75;;;3.17;;
78925;SDS011;68321;51.276;7.208;2023-04-02T10:07:50;6.57;;;4.47;;
78925;SDS011;68321;51.276;7.208;2023-04-02T10:10:37;5.47;;;4.07;;
78925;SDS011;68321;51.276;7.208;2023-04-02T10:13:06;7.55;;;4.53;;
78925;SDS011;68321;51.276;7.208;2023-04-02T10:21:26;4.15;;;3.28;;
78925;SDS011;68321;51.276;7.208;2023-04-02T10:23:54;6.53;;;3.90;;
78925;SDS011;68321;51.276;7.208;2023-04-02T10:26:25;5.13;;;3.47;;
78925;SDS011;68321;51.276;7.208;2023-04-02T10:31:32;4.53;;;2.95;;
78925;SDS011;68321;51.276;7.208;2023-04-02T10:34:08;4.88;;;3.42;;
78925;SDS011;68321;51.276;7.208;2023-04-02T10:37:00;10.35;;;5.20;;
78925;SDS011;68321;51.276;7.208;2023-04-02T10:39:46;7.20;;;4.40;;
78925;SDS011;68321;51.276;7.208;2023-04-02T10:44:53;6.35;;;3.55;;
78925;SDS011;68321;51.276;7.208;2023-04-02T10:47:36;5.28;;;3.08;;
78925;SDS011;68321;51.276;7.208;2023-04-02T10:50:10;5.30;;;3.00;;
78925;SDS011;68321;51.276;7.208;2023-04-02T10:52:51;6.85;;;3.92;;
78925;SDS011;68321;51.276;7.208;2023-04-02T10:55:27;4.95;;;4.40;;
78925;SDS011;68321;51.276;7.208;2023-04-02T10:57:55;6.38;;;3.70;;
78925;SDS011;68321;51.276;7.208;2023-04-02T11:00:30;5.10;;;3.00;;
78925;SDS011;68321;51.276;7.208;2023-04-02T11:03:01;4.22;;;3.40;;
78925;SDS011;68321;51.276;7.208;2023-04-02T11:05:35;6.05;;;3.40;;
78925;SDS011;68321;51.276;7.208;2023-04-02T11:08:13;4.40;;;2.80;;
78925;SDS011;68321;51.276;7.208;2023-04-02T11:10:43;6.45;;;3.22;;
78925;SDS011;68321;51.276;7.208;2023-04-02T11:15:38;4.88;;;3.33;;
78925;SDS011;68321;51.276;7.208;2023-04-02T11:18:04;3.45;;;2.55;;
78925;SDS011;68321;51.276;7.208;2023-04-02T11:23:15;6.32;;;3.50;;
78925;SDS011;68321;51.276;7.208;2023-04-02T11:25:44;5.93;;;3.05;;
78925;SDS011;68321;51.276;7.208;2023-04-02T11:30:54;5.82;;;3.63;;
78925;SDS011;68321;51.276;7.208;2023-04-02T11:35:55;4.68;;;2.90;;
78925;SDS011;68321;51.276;7.208;2023-04-02T11:40:50;3.70;;;2.90;;
78925;SDS011;68321;51.276;7.208;2023-04-02T11:45:56;3.70;;;2.30;;
78925;SDS011;68321;51.276;7.208;2023-04-02T11:50:51;8.98;;;2.35;;
78925;SDS011;68321;51.276;7.208;2023-04-02T11:53:21;4.72;;;3.00;;
78925;SDS011;68321;51.276;7.208;2023-04-02T12:09:45;4.32;;;2.25;;
78925;SDS011;68321;51.276;7.208;2023-04-02T12:12:33;4.57;;;3.55;;
78925;SDS011;68321;51.276;7.208;2023-04-02T12:15:02;5.40;;;3.30;;
78925;SDS011;68321;51.276;7.208;2023-04-02T12:17:33;4.00;;;2.95;;
78925;SDS011;68321;51.276;7.208;2023-04-02T12:20:12;3.70;;;2.03;;
78925;SDS011;68321;51.276;7.208;2023-04-02T12:25:31;6.40;;;2.45;;
78925;SDS011;68321;51.276;7.208;2023-04-02T12:30:42;3.70;;;2.70;;
78925;SDS011;68321;51.276;7.208;2023-04-02T12:35:43;4.32;;;2.63;;
78925;SDS011;68321;51.276;7.208;2023-04-02T12:38:17;4.32;;;2.53;;
78925;SDS011;68321;51.276;7.208;2023-04-02T12:40:54;4.20;;;2.55;;
78925;SDS011;68321;51.276;7.208;2023-04-02T12:43:23;2.63;;;1.70;;
78925;SDS011;68321;51.276;7.208;2023-04-02T12:45:51;7.30;;;2.92;;
78925;SDS011;68321;51.276;7.208;2023-04-02T12:48:17;5.50;;;2.40;;
78925;SDS011;68321;51.276;7.208;2023-04-02T12:50:43;3.53;;;2.00;;
78925;SDS011;68321;51.276;7.208;2023-04-02T12:53:18;7.40;;;2.95;;
78925;SDS011;68321;51.276;7.208;2023-04-02T12:55:49;4.22;;;2.88;;
78925;SDS011;68321;51.276;7.208;2023-04-02T12:58:29;6.03;;;2.55;;
78925;SDS011;68321;51.276;7.208;2023-04-02T13:01:17;7.03;;;2.53;;
78925;SDS011;68321;51.276;7.208;2023-04-02T13:04:00;5.60;;;2.35;;
78925;SDS011;68321;51.276;7.208;2023-04-02T13:06:30;5.18;;;2.70;;
78925;SDS011;68321;51.276;7.208;2023-04-02T13:08:56;3.85;;;2.35;;
78925;SDS011;68321;51.276;7.208;2023-04-02T13:11:21;3.80;;;1.67;;
78925;SDS011;68321;51.276;7.208;2023-04-02T13:13:47;5.10;;;2.85;;
78925;SDS011;68321;51.276;7.208;2023-04-02T13:18:38;7.83;;;2.80;;
78925;SDS011;68321;51.276;7.208;2023-04-02T13:21:05;5.75;;;2.40;;
78925;SDS011;68321;51.276;7.208;2023-04-02T13:23:47;3.60;;;1.92;;
78925;SDS011;68321;51.276;7.208;2023-04-02T13:26:23;3.60;;;2.30;;
78925;SDS011;68321;51.276;7.208;2023-04-02T13:29:00;3.90;;;2.50;;
78925;SDS011;68321;51.276;7.208;2023-04-02T13:31:28;2.70;;;2.25;;
78925;SDS011;68321;51.276;7.208;2023-04-02T13:33:55;3.75;;;3.22;;
78925;SDS011;68321;51.276;7.208;2023-04-02T13:36:20;6.80;;;2.80;;
78925;SDS011;68321;51.276;7.208;2023-04-02T13:38:46;3.72;;;2.78;;
78925;SDS011;68321;51.276;7.208;2023-04-02T13:41:16;3.88;;;2.22;;
78925;SDS011;68321;51.276;7.208;2023-04-02T13:43:45;4.50;;;2.80;;
78925;SDS011;68321;51.276;7.208;2023-04-02T13:46:12;4.47;;;2.97;;
78925;SDS011;68321;51.276;7.208;2023-04-02T13:48:43;3.83;;;2.05;;
78925;SDS011;68321;51.276;7.208;2023-04-02T13:51:09;6.60;;;3.03;;
78925;SDS011;68321;51.276;7.208;2023-04-02T13:53:40;3.63;;;2.45;;
78925;SDS011;68321;51.276;7.208;2023-04-02T13:56:06;3.10;;;2.22;;
78925;SDS011;68321;51.276;7.208;2023-04-02T13:58:32;4.97;;;2.40;;
78925;SDS011;68321;51.276;7.208;2023-04-02T14:00:57;4.05;;;2.10;;
78925;SDS011;68321;51.276;7.208;2023-04-02T14:03:23;3.35;;;1.73;;
78925;SDS011;68321;51.276;7.208;2023-04-02T14:09:03;4.60;;;2.65;;
78925;SDS011;68321;51.276;7.208;2023-04-02T14:14:36;4.05;;;2.75;;
78925;SDS011;68321;51.276;7.208;2023-04-02T14:17:28;3.58;;;2.08;;
78925;SDS011;68321;51.276;7.208;2023-04-02T14:20:23;4.05;;;2.15;;
78925;SDS011;68321;51.276;7.208;2023-04-02T14:25:39;4.35;;;2.45;;
78925;SDS011;68321;51.276;7.208;2023-04-02T14:33:59;2.97;;;2.00;;
78925;SDS011;68321;51.276;7.208;2023-04-02T14:42:02;3.22;;;2.10;;
78925;SDS011;68321;51.276;7.208;2023-04-02T14:44:35;3.60;;;2.75;;
78925;SDS011;68321;51.276;7.208;2023-04-02T14:47:12;2.08;;;1.80;;
78925;SDS011;68321;51.276;7.208;2023-04-02T14:49:41;3.92;;;2.22;;
78925;SDS011;68321;51.276;7.208;2023-04-02T14:52:10;2.80;;;2.47;;
78925;SDS011;68321;51.276;7.208;2023-04-02T15:00:06;5.15;;;2.90;;
78925;SDS011;68321;51.276;7.208;2023-04-02T15:02:45;5.20;;;3.83;;
78925;SDS011;68321;51.276;7.208;2023-04-02T15:05:27;4.43;;;2.65;;
78925;SDS011;68321;51.276;7.208;2023-04-02T15:16:28;3.47;;;2.97;;
78925;SDS011;68321;51.276;7.208;2023-04-02T15:18:55;5.07;;;3.00;;
78925;SDS011;68321;51.276;7.208;2023-04-02T15:21:27;3.90;;;3.13;;
78925;SDS011;68321;51.276;7.208;2023-04-02T15:24:16;4.60;;;2.50;;
78925;SDS011;68321;51.276;7.208;2023-04-02T15:31:48;4.20;;;2.47;;
78925;SDS011;68321;51.276;7.208;2023-04-02T15:34:23;4.72;;;2.75;;
78925;SDS011;68321;51.276;7.208;2023-04-02T15:42:38;4.57;;;3.38;;
78925;SDS011;68321;51.276;7.208;2023-04-02T15:45:25;4.32;;;3.10;;
78925;SDS011;68321;51.276;7.208;2023-04-02T15:53:38;5.32;;;3.40;;
78925;SDS011;68321;51.276;7.208;2023-04-02T16:01:28;2.95;;;2.63;;
78925;SDS011;68321;51.276;7.208;2023-04-02T16:04:00;4.93;;;3.25;;
78925;SDS011;68321;51.276;7.208;2023-04-02T16:09:39;4.65;;;3.17;;
78925;SDS011;68321;51.276;7.208;2023-04-02T16:12:24;5.10;;;3.33;;
78925;SDS011;68321;51.276;7.208;2023-04-02T16:14:49;6.03;;;3.80;;
78925;SDS011;68321;51.276;7.208;2023-04-02T16:17:34;4.65;;;3.28;;
78925;SDS011;68321;51.276;7.208;2023-04-02T16:20:22;4.55;;;2.95;;
78925;SDS011;68321;51.276;7.208;2023-04-02T16:22:58;5.53;;;4.50;;
78925;SDS011;68321;51.276;7.208;2023-04-02T16:25:25;5.43;;;3.30;;
78925;SDS011;68321;51.276;7.208;2023-04-02T16:27:57;4.32;;;3.47;;
78925;SDS011;68321;51.276;7.208;2023-04-02T16:30:34;4.82;;;3.72;;
78925;SDS011;68321;51.276;7.208;2023-04-02T16:33:15;4.82;;;2.63;;
78925;SDS011;68321;51.276;7.208;2023-04-02T16:44:35;4.60;;;2.72;;
78925;SDS011;68321;51.276;7.208;2023-04-02T16:47:10;4.10;;;2.47;;
78925;SDS011;68321;51.276;7.208;2023-04-02T16:55:07;7.68;;;3.30;;
78925;SDS011;68321;51.276;7.208;2023-04-02T17:00:37;6.38;;;3.05;;
78925;SDS011;68321;51.276;7.208;2023-04-02T17:06:41;5.82;;;4.30;;
78925;SDS011;68321;51.276;7.208;2023-04-02T17:10:10;3.25;;;2.70;;
78925;SDS011;68321;51.276;7.208;2023-04-02T17:12:41;5.82;;;3.75;;
78925;SDS011;68321;51.276;7.208;2023-04-02T17:15:18;6.90;;;4.43;;
78925;SDS011;68321;51.276;7.208;2023-04-02T17:17:45;3.60;;;2.97;;
78925;SDS011;68321;51.276;7.208;2023-04-02T17:20:18;4.95;;;2.35;;
78925;SDS011;68321;51.276;7.208;2023-04-02T17:22:46;3.70;;;2.00;;
78925;SDS011;68321;51.276;7.208;2023-04-02T17:25:20;4.80;;;3.40;;
78925;SDS011;68321;51.276;7.208;2023-04-02T17:27:49;3.75;;;2.45;;
78925;SDS011;68321;51.276;7.208;2023-04-02T17:32:43;6.53;;;3.80;;
78925;SDS011;68321;51.276;7.208;2023-04-02T17:38:09;8.25;;;4.55;;
78925;SDS011;68321;51.276;7.208;2023-04-02T17:45:57;5.47;;;2.97;;
78925;SDS011;68321;51.276;7.208;2023-04-02T17:51:38;4.05;;;2.45;;
78925;SDS011;68321;51.276;7.208;2023-04-02T17:54:10;3.38;;;2.28;;
78925;SDS011;68321;51.276;7.208;2023-04-02T18:04:39;3.20;;;2.17;;
78925;SDS011;68321;51.276;7.208;2023-04-02T18:17:58;4.68;;;2.97;;
78925;SDS011;68321;51.276;7.208;2023-04-02T18:25:54;5.43;;;2.70;;
78925;SDS011;68321;51.276;7.208;2023-04-02T18:28:37;6.35;;;2.63;;
78925;SDS011;68321;51.276;7.208;2023-04-02T18:33:51;5.20;;;2.22;;
78925;SDS011;68321;51.276;7.208;2023-04-02T18:36:38;5.80;;;2.42;;
78925;SDS011;68321;51.276;7.208;2023-04-02T18:39:22;3.92;;;2.90;;
78925;SDS011;68321;51.276;7.208;2023-04-02T18:49:40;8.77;;;4.78;;
78925;SDS011;68321;51.276;7.208;2023-04-02T18:52:18;6.07;;;2.92;;
78925;SDS011;68321;51.276;7.208;2023-04-02T18:57:31;3.92;;;2.88;;
78925;SDS011;68321;51.276;7.208;2023-04-02T19:02:41;5.50;;;3.03;;
78925;SDS011;68321;51.276;7.208;2023-04-02T19:07:47;3.38;;;2.95;;
78925;SDS011;68321;51.276;7.208;2023-04-02T19:13:24;6.32;;;4.28;;
78925;SDS011;68321;51.276;7.208;2023-04-02T19:18:29;4.60;;;2.90;;
78925;SDS011;68321;51.276;7.208;2023-04-02T19:20:59;4.05;;;3.00;;
78925;SDS011;68321;51.276;7.208;2023-04-02T19:23:48;5.97;;;3.65;;
78925;SDS011;68321;51.276;7.208;2023-04-02T19:26:24;8.48;;;3.58;;
78925;SDS011;68321;51.276;7.208;2023-04-02T19:31:48;34.50;;;17.17;;
78925;SDS011;68321;51.276;7.208;2023-04-02T19:34:35;6.30;;;4.00;;
78925;SDS011;68321;51.276;7.208;2023-04-02T19:37:10;5.78;;;3.70;;
78925;SDS011;68321;51.276;7.208;2023-04-02T19:39:55;5.45;;;2.88;;
78925;SDS011;68321;51.276;7.208;2023-04-02T19:45:19;8.68;;;3.65;;
78925;SDS011;68321;51.276;7.208;2023-04-02T19:47:45;6.82;;;4.82;;
78925;SDS011;68321;51.276;7.208;2023-04-02T19:50:10;7.70;;;4.70;;
78925;SDS011;68321;51.276;7.208;2023-04-02T19:52:35;4.33;;;2.97;;
78925;SDS011;68321;51.276;7.208;2023-04-02T19:55:01;4.50;;;2.88;;
78925;SDS011;68321;51.276;7.208;2023-04-02T19:57:26;4.87;;;3.60;;
78925;SDS011;68321;51.276;7.208;2023-04-02T19:59:52;4.30;;;3.85;;